Time;durP1;ratioP1;P1;durP2;ratioP2;P2;SDS_P1;SDS_P2;PMS_P1;PMS_P2;Temp;Humidity;BMP_temperature;BMP_pressure;BME280_temperature;BME280_humidity;BME280_pressure;Samples;Min_cycle;Max_cycle;Signal;HPM_P1;HPM_P2
2021/08/09 00:02:18;;;;;;;3.08;1.05;;;;;;;11.94;100.00;99102.66;4989577;28;20107;-74
2021/08/09 00:05:22;;;;;;;1.45;0.55;;;;;;;11.83;100.00;99105.41;4990200;28;20115;-74
2021/08/09 00:08:25;;;;;;;1.33;0.43;;;;;;;11.72;100.00;99102.59;4995784;28;20142;-74
2021/08/09 00:11:30;;;;;;;7.85;0.32;;;;;;;11.63;100.00;99111.16;5010443;28;20696;-74
2021/08/09 00:14:33;;;;;;;1.58;0.70;;;;;;;11.58;100.00;99114.69;5010671;28;20132;-74
2021/08/09 00:17:36;;;;;;;0.40;0.30;;;;;;;11.53;100.00;99107.81;5010123;28;20122;-74
2021/08/09 00:20:39;;;;;;;1.02;0.45;;;;;;;11.58;100.00;99109.88;5010262;28;20103;-74
2021/08/09 00:23:43;;;;;;;4.47;0.40;;;;;;;11.57;100.00;99108.31;5010034;28;20821;-74
2021/08/09 00:26:47;;;;;;;0.73;0.63;;;;;;;11.56;100.00;99106.81;5009099;28;21116;-74
2021/08/09 00:29:50;;;;;;;1.83;0.57;;;;;;;11.56;100.00;99106.06;5009442;28;20136;-74
2021/08/09 00:32:53;;;;;;;0.30;0.30;;;;;;;11.52;100.00;99111.84;5008175;28;20578;-73
2021/08/09 00:35:56;;;;;;;0.50;0.50;;;;;;;11.55;100.00;99105.28;5009194;28;20044;-74
2021/08/09 00:38:59;;;;;;;0.73;0.50;;;;;;;11.59;100.00;99111.38;5009398;28;20059;-74
2021/08/09 00:42:03;;;;;;;1.10;0.63;;;;;;;11.57;100.00;99107.56;5026361;28;20075;-74
2021/08/09 00:45:06;;;;;;;3.08;0.20;;;;;;;11.58;100.00;99112.66;5050611;28;20051;-73
2021/08/09 00:48:09;;;;;;;1.45;0.40;;;;;;;11.57;100.00;99097.19;5050897;28;20060;-73
2021/08/09 00:51:13;;;;;;;10.88;0.63;;;;;;;11.57;100.00;99090.81;5049721;28;20580;-73
2021/08/09 00:54:15;;;;;;;0.28;0.28;;;;;;;11.58;100.00;99093.13;5052334;28;20119;-74
2021/08/09 00:57:18;;;;;;;2.92;0.77;;;;;;;11.61;100.00;99086.53;5053977;28;20521;-74
2021/08/09 01:00:21;;;;;;;0.93;0.20;;;;;;;11.65;100.00;99092.63;5054471;28;20349;-74
2021/08/09 01:03:24;;;;;;;0.60;0.40;;;;;;;11.69;100.00;99084.84;5053908;28;20056;-74
2021/08/09 01:06:27;;;;;;;0.75;0.75;;;;;;;11.76;100.00;99092.72;5054354;28;20559;-74
2021/08/09 01:09:34;;;;;;;4.43;0.90;;;;;;;11.82;100.00;99096.31;5054290;28;20183;-74
2021/08/09 01:13:01;;;;;;;1.75;0.60;;;;;;;11.90;100.00;99091.75;5064731;28;20056;-74
2021/08/09 01:16:08;;;;;;;1.85;0.47;;;;;;;11.95;100.00;99093.78;5054222;28;20522;-74
2021/08/09 01:19:33;;;;;;;0.88;0.30;;;;;;;11.95;100.00;99082.63;5053174;28;20098;-74
2021/08/09 01:23:04;;;;;;;3.28;0.45;;;;;;;11.96;100.00;99086.94;5053530;28;20063;-74
2021/08/09 01:26:46;;;;;;;0.20;0.17;;;;;;;11.99;100.00;99087.97;5054181;28;20056;-74
2021/08/09 01:29:50;;;;;;;0.82;0.40;;;;;;;11.97;100.00;99099.66;5066125;28;20055;-73
2021/08/09 01:32:54;;;;;;;0.75;0.40;;;;;;;11.94;100.00;99091.50;5062461;28;20067;-73
2021/08/09 01:35:59;;;;;;;3.70;0.35;;;;;;;11.99;100.00;99097.13;5073557;28;20063;-72
2021/08/09 01:39:04;;;;;;;6.30;1.10;;;;;;;11.99;100.00;99091.53;5068284;28;20068;-70
2021/08/09 01:42:08;;;;;;;8.20;0.30;;;;;;;11.99;100.00;99085.94;5068973;28;20044;-73
2021/08/09 01:45:16;;;;;;;0.75;0.50;;;;;;;11.96;100.00;99095.31;5073739;28;20110;-73
2021/08/09 01:48:19;;;;;;;1.15;0.45;;;;;;;11.94;100.00;99097.09;5072826;28;20047;-73
2021/08/09 01:51:23;;;;;;;4.95;1.30;;;;;;;11.93;100.00;99090.00;5073403;28;20505;-73
2021/08/09 01:54:26;;;;;;;1.17;0.43;;;;;;;11.93;100.00;99090.00;5073455;28;20052;-73
2021/08/09 01:57:29;;;;;;;3.00;0.45;;;;;;;11.92;100.00;99088.44;5073416;28;20059;-73
2021/08/09 02:00:32;;;;;;;0.88;0.10;;;;;;;11.90;100.00;99082.63;5073375;28;20098;-73
2021/08/09 02:03:35;;;;;;;0.20;0.20;;;;;;;11.91;100.00;99087.69;5073194;28;20052;-73
2021/08/09 02:06:39;;;;;;;0.47;0.40;;;;;;;11.91;100.00;99093.25;5073225;28;20079;-73
2021/08/09 02:09:42;;;;;;;0.30;0.30;;;;;;;11.90;100.00;99093.78;5073187;28;20083;-72
2021/08/09 02:13:23;;;;;;;4.47;0.50;;;;;;;11.91;100.00;99092.53;5073321;28;20517;-73
2021/08/09 02:16:33;;;;;;;1.80;0.27;;;;;;;11.86;100.00;99085.66;5052837;28;20391;-73
2021/08/09 02:19:57;;;;;;;0.60;0.37;;;;;;;11.80;100.00;99092.50;5052857;28;20457;-72
2021/08/09 02:23:05;;;;;;;10.05;0.75;;;;;;;11.75;100.00;99096.00;5052607;28;20064;-72
2021/08/09 02:26:09;;;;;;;9.27;0.32;;;;;;;11.67;100.00;99087.38;5052990;28;20064;-72
2021/08/09 02:29:17;;;;;;;2.50;0.65;;;;;;;11.58;100.00;99092.38;5053091;28;20461;-73
2021/08/09 02:32:24;;;;;;;2.88;0.43;;;;;;;11.49;100.00;99101.72;5052032;28;20098;-73
2021/08/09 02:35:29;;;;;;;1.55;0.20;;;;;;;11.37;100.00;99091.75;5052172;28;20098;-72
2021/08/09 02:38:33;;;;;;;0.52;0.20;;;;;;;11.30;100.00;99095.03;5052904;28;20049;-74
2021/08/09 02:41:37;;;;;;;1.00;0.32;;;;;;;11.22;100.00;99103.09;5052433;28;20068;-74
2021/08/09 02:44:41;;;;;;;0.43;0.20;;;;;;;11.15;100.00;99097.97;5052671;28;20146;-74
2021/08/09 02:47:45;;;;;;;1.30;0.30;;;;;;;11.09;100.00;99096.41;5041036;28;20107;-74
2021/08/09 02:50:49;;;;;;;0.93;0.20;;;;;;;11.05;100.00;99090.31;5032678;28;20056;-74
2021/08/09 02:53:53;;;;;;;1.95;0.90;;;;;;;11.00;100.00;99093.84;5032494;28;20111;-74
2021/08/09 02:56:56;;;;;;;4.07;0.93;;;;;;;10.95;100.00;99098.13;5032561;28;20414;-74
2021/08/09 03:00:00;;;;;;;0.63;0.22;;;;;;;10.92;100.00;99092.75;5032614;28;20154;-74
2021/08/09 03:03:03;;;;;;;5.75;1.10;;;;;;;10.85;100.00;99090.44;5032439;28;20418;-74
2021/08/09 03:06:07;;;;;;;0.35;0.35;;;;;;;10.81;100.00;99087.09;5040746;28;20108;-74
2021/08/09 03:09:10;;;;;;;0.52;0.17;;;;;;;10.77;100.00;99086.56;5052198;28;20052;-74
2021/08/09 03:12:18;;;;;;;1.10;0.57;;;;;;;10.71;100.00;99086.53;5051728;28;20422;-74
2021/08/09 03:15:20;;;;;;;2.17;0.40;;;;;;;10.67;100.00;99077.66;5051714;28;20056;-74
2021/08/09 03:18:23;;;;;;;0.73;0.57;;;;;;;10.66;100.00;99081.69;5051724;28;20052;-74
2021/08/09 03:21:26;;;;;;;2.70;0.77;;;;;;;10.62;100.00;99076.34;5062386;28;20111;-74
2021/08/09 03:24:31;;;;;;;0.63;0.45;;;;;;;10.58;100.00;99081.38;5051954;28;20391;-74
2021/08/09 03:27:34;;;;;;;5.28;0.40;;;;;;;10.55;100.00;99082.38;5051962;28;20071;-74
2021/08/09 03:30:37;;;;;;;0.17;0.10;;;;;;;10.52;100.00;99097.28;5051674;28;20148;-74
2021/08/09 03:33:40;;;;;;;0.57;0.45;;;;;;;10.50;100.00;99085.84;5051704;28;20074;-74
2021/08/09 03:36:46;;;;;;;0.65;0.40;;;;;;;10.51;100.00;99097.75;5051843;28;20075;-74
2021/08/09 03:39:49;;;;;;;1.25;0.70;;;;;;;10.47;100.00;99103.56;5051800;28;20056;-74
2021/08/09 03:42:53;;;;;;;1.42;0.38;;;;;;;10.42;100.00;99090.34;5051775;28;20084;-74
2021/08/09 03:45:56;;;;;;;2.85;1.00;;;;;;;10.39;100.00;99098.94;5051225;28;20071;-74
2021/08/09 03:49:03;;;;;;;2.20;0.38;;;;;;;10.35;100.00;99090.78;5051718;28;20056;-74
2021/08/09 03:52:06;;;;;;;1.58;0.60;;;;;;;10.34;100.00;99097.63;5051553;28;20076;-74
2021/08/09 03:55:09;;;;;;;2.67;1.25;;;;;;;10.31;100.00;99095.81;5051480;28;20052;-74
2021/08/09 03:58:13;;;;;;;1.25;0.57;;;;;;;10.29;100.00;99092.75;5051660;28;20055;-74
2021/08/09 04:01:16;;;;;;;1.17;0.80;;;;;;;10.27;100.00;99095.28;5051337;28;20093;-74
2021/08/09 04:04:19;;;;;;;2.58;0.95;;;;;;;10.30;100.00;99102.66;5050885;28;20419;-75
2021/08/09 04:07:22;;;;;;;1.20;0.50;;;;;;;10.29;100.00;99095.53;5051299;28;20055;-74
2021/08/09 04:10:25;;;;;;;1.77;0.68;;;;;;;10.29;100.00;99103.13;5031099;28;20461;-74
2021/08/09 04:13:28;;;;;;;1.25;0.80;;;;;;;10.28;100.00;99096.06;5031309;28;20063;-74
2021/08/09 04:16:31;;;;;;;0.65;0.15;;;;;;;10.29;100.00;99103.91;5030117;28;20060;-75
2021/08/09 04:19:34;;;;;;;0.98;0.63;;;;;;;10.30;100.00;99099.88;5031054;28;20056;-74
2021/08/09 04:22:37;;;;;;;2.50;0.77;;;;;;;10.33;100.00;99103.69;5031046;28;20063;-75
2021/08/09 04:25:40;;;;;;;2.15;0.65;;;;;;;10.34;100.00;99100.41;5031180;28;20056;-76
2021/08/09 04:28:43;;;;;;;2.08;0.35;;;;;;;10.43;100.00;99108.59;5034008;28;20168;-75
2021/08/09 04:31:46;;;;;;;0.28;0.13;;;;;;;10.49;100.00;99112.19;5035506;28;20505;-75
2021/08/09 04:34:50;;;;;;;1.83;1.13;;;;;;;10.56;100.00;99113.75;5035959;28;20072;-75
2021/08/09 04:37:53;;;;;;;3.83;1.05;;;;;;;10.60;100.00;99117.09;5035233;28;20094;-75
2021/08/09 04:40:56;;;;;;;1.67;0.70;;;;;;;10.62;100.00;99112.56;5034425;28;20053;-75
2021/08/09 04:43:59;;;;;;;3.15;1.15;;;;;;;10.68;100.00;99107.78;5049250;28;20586;-75
2021/08/09 04:47:02;;;;;;;1.15;0.20;;;;;;;10.74;100.00;99112.66;5035323;28;20189;-74
2021/08/09 04:50:07;;;;;;;1.27;0.55;;;;;;;10.76;100.00;99108.13;5034754;28;20111;-75
2021/08/09 04:53:10;;;;;;;0.93;0.10;;;;;;;10.77;100.00;99103.28;5035009;28;20060;-75
2021/08/09 04:56:13;;;;;;;6.55;0.50;;;;;;;10.73;100.00;99105.53;5039195;28;20056;-75
2021/08/09 04:59:16;;;;;;;0.98;0.20;;;;;;;10.70;100.00;99112.09;5053060;28;20095;-75
2021/08/09 05:02:19;;;;;;;1.02;0.20;;;;;;;10.71;100.00;99108.06;5053232;28;20552;-75
2021/08/09 05:05:22;;;;;;;1.67;1.00;;;;;;;10.76;100.00;99119.25;5054699;28;20102;-76
2021/08/09 05:08:25;;;;;;;4.70;0.65;;;;;;;10.81;100.00;99112.16;5054489;28;20052;-76
2021/08/09 05:11:28;;;;;;;2.13;0.45;;;;;;;10.85;100.00;99112.72;5054540;28;20048;-75
2021/08/09 05:14:31;;;;;;;4.15;1.33;;;;;;;10.92;100.00;99104.66;5054587;28;20063;-75
2021/08/09 05:17:36;;;;;;;4.65;1.08;;;;;;;10.95;100.00;99114.06;5054428;28;20055;-75
2021/08/09 05:20:39;;;;;;;3.40;0.65;;;;;;;10.98;100.00;99113.06;5054285;28;20107;-75
2021/08/09 05:23:42;;;;;;;0.47;0.35;;;;;;;11.01;100.00;99112.06;5054131;28;20082;-75
2021/08/09 05:26:44;;;;;;;1.70;0.60;;;;;;;10.98;100.00;99110.28;5054148;28;20078;-75
2021/08/09 05:29:47;;;;;;;3.22;0.60;;;;;;;10.99;100.00;99114.59;5054270;28;20052;-75
2021/08/09 05:32:51;;;;;;;9.90;1.23;;;;;;;10.99;100.00;99112.56;5054177;28;20064;-75
2021/08/09 05:35:54;;;;;;;1.13;0.57;;;;;;;11.05;100.00;99104.25;5054176;28;20056;-76
2021/08/09 05:39:00;;;;;;;0.50;0.35;;;;;;;11.10;100.00;99106.31;5053724;28;20048;-75
2021/08/09 05:42:03;;;;;;;3.70;0.93;;;;;;;11.22;100.00;99105.09;5053931;28;20084;-75
2021/08/09 05:45:08;;;;;;;1.60;0.40;;;;;;;11.34;100.00;99118.63;5054054;28;20098;-76
2021/08/09 05:48:11;;;;;;;0.75;0.50;;;;;;;11.45;100.00;99109.56;5053403;28;20195;-75
2021/08/09 05:51:14;;;;;;;2.40;0.57;;;;;;;11.54;100.00;99119.72;5052685;28;20075;-75
2021/08/09 05:54:17;;;;;;;1.48;0.68;;;;;;;11.64;100.00;99119.00;5068838;28;20051;-75
2021/08/09 05:57:20;;;;;;;4.95;0.43;;;;;;;11.76;100.00;99109.44;5050382;28;20051;-73
2021/08/09 06:00:24;;;;;;;1.08;0.32;;;;;;;11.86;100.00;99110.78;5051229;28;20059;-75
2021/08/09 06:03:27;;;;;;;3.10;0.40;;;;;;;11.99;100.00;99111.06;5051657;28;20048;-75
2021/08/09 06:06:30;;;;;;;0.95;0.73;;;;;;;12.13;100.00;99110.06;5052033;28;20525;-76
2021/08/09 06:09:33;;;;;;;1.27;1.00;;;;;;;12.28;100.00;99109.09;5052288;28;20529;-74
2021/08/09 06:12:37;;;;;;;0.30;0.15;;;;;;;12.46;100.00;99119.75;5052692;28;20052;-74
2021/08/09 06:15:40;;;;;;;3.30;1.10;;;;;;;12.61;100.00;99114.69;5053369;28;20458;-74
2021/08/09 06:18:43;;;;;;;7.32;0.77;;;;;;;12.83;100.00;99115.47;5053353;28;20051;-75
2021/08/09 06:21:46;;;;;;;2.00;0.82;;;;;;;13.03;100.00;99117.22;5053241;28;20056;-74
2021/08/09 06:24:50;;;;;;;4.60;1.13;;;;;;;13.21;100.00;99115.97;5053188;28;20111;-74
2021/08/09 06:27:53;;;;;;;2.97;1.25;;;;;;;13.34;100.00;99119.72;5053340;28;20064;-74
2021/08/09 06:30:56;;;;;;;2.05;0.52;;;;;;;13.43;100.00;99125.06;5052874;28;20068;-74
2021/08/09 06:33:59;;;;;;;0.40;0.30;;;;;;;13.46;100.00;99126.84;5051222;28;20118;-75
2021/08/09 06:37:03;;;;;;;6.30;1.00;;;;;;;13.48;100.00;99129.09;5050736;28;20174;-75
2021/08/09 06:40:06;;;;;;;1.02;0.38;;;;;;;13.50;100.00;99124.53;5043395;28;20765;-75
2021/08/09 06:43:09;;;;;;;4.35;0.95;;;;;;;13.57;100.00;99129.59;5043361;28;20485;-74
2021/08/09 06:46:13;;;;;;;1.08;0.60;;;;;;;13.74;100.00;99135.13;5025671;28;21032;-75
2021/08/09 06:49:16;;;;;;;2.40;0.65;;;;;;;13.77;100.00;99138.94;5044425;28;20747;-76
2021/08/09 06:52:21;;;;;;;4.30;0.75;;;;;;;13.73;100.00;99133.59;5041640;28;20055;-76
2021/08/09 06:55:24;;;;;;;1.15;0.63;;;;;;;13.74;100.00;99139.97;5039478;28;20576;-76
2021/08/09 06:58:29;;;;;;;0.47;0.40;;;;;;;13.79;100.00;99148.34;5043401;28;20098;-75
2021/08/09 07:01:32;;;;;;;1.63;0.63;;;;;;;13.88;100.00;99147.28;5042636;28;20060;-76
2021/08/09 07:04:35;;;;;;;1.30;0.40;;;;;;;13.88;100.00;99145.22;5042972;28;20055;-76
2021/08/09 07:07:40;;;;;;;4.30;0.45;;;;;;;13.87;100.00;99145.75;5042969;28;20461;-76
2021/08/09 07:10:44;;;;;;;1.80;0.40;;;;;;;13.85;100.00;99148.31;5041206;28;20080;-76
2021/08/09 07:13:50;;;;;;;2.15;0.45;;;;;;;13.86;100.00;99152.66;5050411;28;20060;-75
2021/08/09 07:16:55;;;;;;;0.85;0.68;;;;;;;13.87;100.00;99160.53;5063021;28;20051;-75
2021/08/09 07:19:58;;;;;;;2.05;0.47;;;;;;;13.95;100.00;99149.53;5052246;28;20122;-76
2021/08/09 07:23:01;;;;;;;0.80;0.73;;;;;;;14.04;100.00;99164.00;5051594;28;20060;-76
2021/08/09 07:26:04;;;;;;;5.78;0.60;;;;;;;14.17;100.00;99157.84;5052168;28;20056;-76
2021/08/09 07:29:07;;;;;;;0.32;0.30;;;;;;;14.26;100.00;99152.69;5051841;28;20048;-76
2021/08/09 07:32:10;;;;;;;0.30;0.30;;;;;;;14.35;100.00;99155.22;5043548;28;20525;-76
2021/08/09 07:35:14;;;;;;;2.78;0.52;;;;;;;14.40;100.00;99162.09;5046028;28;20102;-75
2021/08/09 07:38:17;;;;;;;5.80;0.77;;;;;;;14.46;100.00;99160.00;5041203;28;20052;-76
2021/08/09 07:41:20;;;;;;;2.38;0.40;;;;;;;14.47;100.00;99155.91;5051169;28;20426;-77
2021/08/09 07:44:23;;;;;;;5.47;0.68;;;;;;;14.54;100.00;99157.38;5042871;28;20394;-76
2021/08/09 07:47:26;;;;;;;0.88;0.35;;;;;;;14.62;100.00;99161.19;5051320;28;20056;-76
2021/08/09 07:50:30;;;;;;;0.57;0.40;;;;;;;14.67;100.00;99163.94;5051603;28;20060;-76
2021/08/09 07:53:32;;;;;;;0.32;0.22;;;;;;;14.57;100.00;99165.53;5051137;28;20533;-77
2021/08/09 07:56:36;;;;;;;1.55;0.73;;;;;;;14.47;100.00;99164.31;5051422;28;20052;-74
2021/08/09 07:59:39;;;;;;;1.00;0.50;;;;;;;14.40;100.00;99162.09;5031640;28;20111;-74
2021/08/09 08:02:42;;;;;;;2.58;0.20;;;;;;;14.32;100.00;99163.91;5030993;28;20056;-74
2021/08/09 08:05:45;;;;;;;5.00;0.82;;;;;;;14.21;100.00;99166.72;5031365;28;20552;-74
2021/08/09 08:08:48;;;;;;;0.17;0.15;;;;;;;14.18;100.00;99168.53;5040481;28;20518;-74
2021/08/09 08:11:52;;;;;;;2.03;0.63;;;;;;;14.22;100.00;99176.66;5046840;28;20193;-74
2021/08/09 08:14:55;;;;;;;1.15;0.20;;;;;;;14.31;100.00;99168.00;5040767;28;20049;-74
2021/08/09 08:17:58;;;;;;;2.17;0.75;;;;;;;14.53;100.00;99176.25;5015410;28;20056;-74
2021/08/09 08:21:01;;;;;;;0.10;0.10;;;;;;;14.75;100.00;99176.09;5041351;28;20087;-75
2021/08/09 08:24:05;;;;;;;1.27;0.32;;;;;;;14.87;100.00;99177.53;5041949;28;20045;-74
2021/08/09 08:27:08;;;;;;;1.70;0.45;;;;;;;15.07;100.00;99174.31;5051428;28;20059;-75
2021/08/09 08:30:12;;;;;;;0.70;0.20;;;;;;;15.28;100.00;99171.06;5051284;28;20516;-74
2021/08/09 08:33:15;;;;;;;0.45;0.40;;;;;;;15.32;100.00;99174.34;5051129;28;20103;-74
2021/08/09 08:36:18;;;;;;;1.15;0.73;;;;;;;15.43;100.00;99175.03;5050442;28;20060;-74
2021/08/09 08:39:21;;;;;;;0.40;0.20;;;;;;;15.50;100.00;99173.69;5050612;28;20068;-74
2021/08/09 08:42:24;;;;;;;0.60;0.17;;;;;;;15.52;100.00;99182.34;5048854;28;20052;-75
2021/08/09 08:45:29;;;;;;;0.77;0.30;;;;;;;15.46;100.00;99176.03;5049776;28;20178;-75
2021/08/09 08:48:33;;;;;;;0.30;0.20;;;;;;;15.53;100.00;99189.47;5049680;28;20102;-75
2021/08/09 08:51:37;;;;;;;0.63;0.13;;;;;;;15.44;100.00;99190.56;5049095;28;20079;-74
2021/08/09 08:54:41;;;;;;;2.03;0.30;;;;;;;15.52;100.00;99185.16;5049313;28;20063;-75
2021/08/09 08:57:46;;;;;;;0.55;0.20;;;;;;;15.55;100.00;99186.91;5050827;28;20051;-74
2021/08/09 09:00:50;;;;;;;0.25;0.13;;;;;;;15.59;100.00;99190.94;5050938;28;20418;-74
2021/08/09 09:03:53;;;;;;;0.93;0.15;;;;;;;15.69;100.00;99188.53;5050909;28;20080;-75
2021/08/09 09:07:05;;;;;;;1.23;0.10;;;;;;;15.84;100.00;99186.84;5050551;28;20132;-75
2021/08/09 09:10:22;;;;;;;1.90;0.47;;;;;;;16.02;100.00;99185.38;5050908;28;20627;-75
2021/08/09 09:13:24;;;;;;;2.00;0.45;;;;;;;16.13;100.00;99188.03;5050188;28;20059;-75
2021/08/09 09:16:46;;;;;;;3.35;0.20;;;;;;;16.25;100.00;99183.78;5054309;28;20552;-74
2021/08/09 09:19:49;;;;;;;0.20;0.10;;;;;;;16.22;100.00;99179.22;5054378;28;20052;-75
2021/08/09 09:23:11;;;;;;;0.15;0.03;;;;;;;16.33;100.00;99179.06;5054208;28;20204;-75
2021/08/09 09:26:22;;;;;;;0.45;0.20;;;;;;;16.57;100.00;99189.50;5054425;28;20541;-76
2021/08/09 09:29:26;;;;;;;0.30;0.20;;;;;;;16.75;100.00;99190.78;5053895;28;20563;-76
2021/08/09 09:32:29;;;;;;;1.40;0.20;;;;;;;16.77;100.00;99183.34;5054127;28;20431;-75
2021/08/09 09:35:38;;;;;;;0.60;0.20;;;;;;;16.79;100.00;99182.78;5054316;28;20592;-75
2021/08/09 09:38:42;;;;;;;0.73;0.20;;;;;;;16.74;100.00;99190.00;5054109;28;20114;-76
2021/08/09 09:41:56;;;;;;;0.35;0.10;;;;;;;16.63;100.00;99188.13;5054368;28;20084;-75
2021/08/09 09:45:20;;;;;;;0.20;0.10;;;;;;;16.74;100.00;99194.91;5054209;28;20047;-76
2021/08/09 09:48:37;;;;;;;0.60;0.20;;;;;;;16.80;100.00;99192.75;5053288;28;20071;-77
2021/08/09 09:51:44;;;;;;;3.30;0.35;;;;;;;16.82;100.00;99201.41;5053665;28;20060;-75
2021/08/09 09:54:49;;;;;;;0.63;0.20;;;;;;;16.89;100.00;99200.81;5053704;28;20095;-76
2021/08/09 09:57:52;;;;;;;1.88;0.25;;;;;;;16.82;100.00;99192.97;5054009;28;20055;-76
2021/08/09 10:00:57;;;;;;;1.10;0.10;;;;;;;16.78;100.00;99200.97;5053847;28;20133;-75
2021/08/09 10:03:59;;;;;;;1.25;0.20;;;;;;;16.90;100.00;99197.44;5053513;28;20460;-75
2021/08/09 10:07:03;;;;;;;1.05;0.10;;;;;;;17.07;100.00;99205.63;5053543;28;20119;-75
2021/08/09 10:10:09;;;;;;;1.83;0.30;;;;;;;17.22;100.00;99201.00;5053662;28;20636;-75
2021/08/09 10:13:12;;;;;;;2.85;0.55;;;;;;;17.33;100.00;99194.44;5053269;28;20111;-75
2021/08/09 10:16:15;;;;;;;1.10;0.20;;;;;;;17.68;100.00;99196.13;5053585;28;20052;-75
2021/08/09 10:19:20;;;;;;;0.10;0.10;;;;;;;18.08;100.00;99187.13;5053067;28;20052;-75
2021/08/09 10:22:23;;;;;;;1.13;0.20;;;;;;;18.08;100.00;99177.94;5052687;28;20132;-76
2021/08/09 10:26:02;;;;;;;0.10;0.00;;;;;;;18.33;100.00;99198.16;5052213;28;20087;-74
2021/08/09 10:29:07;;;;;;;3.92;0.10;;;;;;;18.35;100.00;99195.56;5008716;28;20060;-74
2021/08/09 10:32:19;;;;;;;2.63;0.38;;;;;;;18.38;100.00;99200.13;5073218;28;20132;-75
2021/08/09 10:35:35;;;;;;;3.22;0.10;;;;;;;18.23;100.00;99199.94;5072672;28;20178;-74
2021/08/09 10:38:43;;;;;;;0.10;0.10;;;;;;;18.32;100.00;99196.66;5072910;28;20118;-75
2021/08/09 10:41:52;;;;;;;0.10;0.10;;;;;;;18.26;100.00;99201.66;5060929;28;20055;-73
2021/08/09 10:44:56;;;;;;;0.20;0.10;;;;;;;18.42;100.00;99211.81;5052427;28;20056;-75
2021/08/09 10:47:59;;;;;;;2.53;0.38;;;;;;;18.88;100.00;99196.97;5052705;28;20055;-74
2021/08/09 10:51:02;;;;;;;0.43;0.10;;;;;;;18.62;100.00;99203.47;5052741;28;20106;-74
2021/08/09 10:54:27;;;;;;;0.38;0.10;;;;;;;18.47;100.00;99208.16;5053064;28;20060;-74
2021/08/09 10:57:57;;;;;;;3.50;0.00;;;;;;;18.61;100.00;99199.13;5047368;28;20056;-73
2021/08/09 11:01:00;;;;;;;1.13;0.25;;;;;;;18.57;100.00;99201.50;5052176;28;20098;-73
2021/08/09 11:04:03;;;;;;;0.38;0.28;;;;;;;18.25;100.00;99202.97;5052433;28;20406;-75
2021/08/09 11:07:18;;;;;;;0.10;0.00;;;;;;;18.18;100.00;99210.78;5052367;28;20411;-75
2021/08/09 11:10:57;;;;;;;2.47;0.20;;;;;;;18.04;100.00;99200.81;5032037;28;20159;-74
2021/08/09 11:14:11;;;;;;;0.85;0.20;;;;;;;18.23;100.00;99208.38;5041712;28;20068;-75
2021/08/09 11:17:14;;;;;;;1.40;0.30;;;;;;;18.70;100.00;99209.94;5051989;28;20055;-73
2021/08/09 11:20:27;;;;;;;2.38;0.30;;;;;;;18.78;100.00;99201.53;5052018;28;20537;-74
2021/08/09 11:23:43;;;;;;;7.05;0.40;;;;;;;18.62;100.00;99211.16;5070733;28;20108;-74
2021/08/09 11:26:46;;;;;;;1.17;0.52;;;;;;;18.29;100.00;99225.94;5051868;28;20052;-75
2021/08/09 11:29:54;;;;;;;1.95;0.10;;;;;;;17.89;100.00;99228.75;5051220;28;20052;-74
2021/08/09 11:32:57;;;;;;;0.30;0.20;;;;;;;17.64;100.00;99221.81;5050710;28;20063;-74
2021/08/09 11:36:02;;;;;;;0.45;0.45;;;;;;;17.95;100.00;99226.59;5051735;28;20107;-74
2021/08/09 11:39:06;;;;;;;3.78;0.13;;;;;;;18.17;100.00;99226.16;5051201;28;20609;-73
2021/08/09 11:42:09;;;;;;;2.88;0.03;;;;;;;18.01;100.00;99224.44;5051758;28;20044;-73
2021/08/09 11:45:25;;;;;;;0.52;0.00;;;;;;;17.68;100.00;99236.34;5051525;28;20055;-73
2021/08/09 11:48:30;;;;;;;1.13;0.22;;;;;;;17.35;100.00;99236.88;5058817;28;20055;-73
2021/08/09 11:51:33;;;;;;;0.65;0.10;;;;;;;17.04;100.00;99234.84;5050983;28;20514;-74
2021/08/09 11:54:39;;;;;;;1.25;0.40;;;;;;;16.82;100.00;99237.97;5051064;28;20072;-74
2021/08/09 11:57:42;;;;;;;0.30;0.10;;;;;;;16.70;100.00;99234.56;5051673;28;20131;-74
2021/08/09 12:00:47;;;;;;;0.25;0.10;;;;;;;16.67;100.00;99241.25;5051533;28;20493;-74
2021/08/09 12:04:12;;;;;;;0.10;0.10;;;;;;;16.97;100.00;99241.06;5050935;28;20129;-74
2021/08/09 12:07:20;;;;;;;1.45;0.10;;;;;;;17.05;100.00;99247.59;5050946;28;20052;-74
2021/08/09 12:10:26;;;;;;;3.70;0.75;;;;;;;17.06;100.00;99238.63;5050530;28;20124;-74
2021/08/09 12:13:31;;;;;;;0.60;0.20;;;;;;;17.18;100.00;99242.78;5050500;28;20052;-74
2021/08/09 12:16:56;;;;;;;2.05;0.00;;;;;;;17.02;100.00;99238.16;5051127;28;20620;-75
2021/08/09 12:20:13;;;;;;;0.10;0.00;;;;;;;16.82;100.00;99252.03;5050745;28;20094;-74
2021/08/09 12:23:25;;;;;;;0.20;0.05;;;;;;;16.75;100.00;99244.22;5050546;28;20577;-74
2021/08/09 12:26:32;;;;;;;1.67;0.10;;;;;;;16.85;100.00;99245.34;5050976;28;20525;-74
2021/08/09 12:29:35;;;;;;;2.47;0.28;;;;;;;17.36;100.00;99244.81;5051195;28;20075;-73
2021/08/09 12:32:42;;;;;;;7.53;0.20;;;;;;;17.78;100.00;99239.50;5051093;28;20083;-74
2021/08/09 12:35:46;;;;;;;0.35;0.10;;;;;;;18.07;100.00;99238.41;5051245;28;20107;-73
2021/08/09 12:38:49;;;;;;;0.20;0.00;;;;;;;18.05;100.00;99236.16;5051624;28;20056;-73
2021/08/09 12:41:52;;;;;;;0.70;0.13;;;;;;;18.15;100.00;99240.03;5051431;28;20415;-74
2021/08/09 12:44:55;;;;;;;6.75;0.20;;;;;;;18.31;100.00;99237.44;5051139;28;20482;-74
2021/08/09 12:47:58;;;;;;;0.52;0.30;;;;;;;18.50;100.00;99235.25;5051564;28;20398;-73
2021/08/09 12:51:01;;;;;;;0.47;0.10;;;;;;;18.71;100.00;99233.28;5055088;28;20454;-73
2021/08/09 12:54:04;;;;;;;2.10;0.52;;;;;;;18.73;100.00;99225.03;5054869;28;20140;-72
2021/08/09 12:57:07;;;;;;;0.88;0.20;;;;;;;18.51;100.00;99242.41;5056838;28;20486;-72
2021/08/09 13:00:11;;;;;;;1.77;0.80;;;;;;;18.30;100.00;99239.47;5054862;28;20047;-73
2021/08/09 13:03:14;;;;;;;0.57;0.20;;;;;;;18.10;100.00;99243.72;5054676;28;20059;-73
2021/08/09 13:06:17;;;;;;;0.70;0.45;;;;;;;17.91;100.00;99248.69;5054082;28;20079;-72
2021/08/09 13:09:20;;;;;;;2.47;0.40;;;;;;;17.78;100.00;99245.13;5054047;28;20055;-72
2021/08/09 13:12:23;;;;;;;2.17;0.40;;;;;;;17.65;100.00;99248.66;5054242;28;20460;-73
2021/08/09 13:15:26;;;;;;;0.30;0.00;;;;;;;17.59;100.00;99250.06;5054442;28;20056;-73
2021/08/09 13:18:30;;;;;;;0.30;0.25;;;;;;;17.75;100.00;99243.38;5054281;28;20059;-73
2021/08/09 13:21:33;;;;;;;0.90;0.10;;;;;;;18.36;100.00;99242.97;5053733;28;20075;-72
2021/08/09 13:24:36;;;;;;;0.40;0.20;;;;;;;18.69;100.00;99247.16;5053468;28;20060;-74
2021/08/09 13:27:39;;;;;;;0.10;0.00;;;;;;;18.89;100.00;99246.44;5054183;28;20056;-73
2021/08/09 13:30:42;;;;;;;0.10;0.10;;;;;;;18.53;100.00;99240.56;5053074;28;20056;-72
2021/08/09 13:33:48;;;;;;;0.17;0.10;;;;;;;18.63;100.00;99250.09;5053651;28;20463;-73
2021/08/09 13:36:51;;;;;;;1.10;0.00;;;;;;;18.87;100.00;99235.72;5054013;28;20084;-72
2021/08/09 13:39:54;;;;;;;0.15;0.00;;;;;;;19.02;100.00;99237.94;5053994;28;20115;-73
2021/08/09 13:42:59;;;;;;;1.00;0.10;;;;;;;19.30;100.00;99238.00;5054232;28;20101;-73
2021/08/09 13:46:02;;;;;;;0.35;0.15;;;;;;;19.55;100.00;99227.94;5053539;28;20059;-72
2021/08/09 13:49:05;;;;;;;0.52;0.03;;;;;;;19.72;100.00;99232.38;5052511;28;20052;-73
2021/08/09 13:52:10;;;;;;;2.00;0.30;;;;;;;19.90;100.00;99232.13;5053585;28;20208;-73
2021/08/09 13:55:13;;;;;;;1.73;0.20;;;;;;;19.99;100.00;99225.97;5053723;28;20657;-73
2021/08/09 13:58:15;;;;;;;0.30;0.20;;;;;;;20.10;100.00;99230.53;5052873;28;20129;-73
2021/08/09 14:01:19;;;;;;;4.25;0.20;;;;;;;19.85;100.00;99240.75;5052349;28;20052;-74
2021/08/09 14:04:22;;;;;;;0.82;0.15;;;;;;;19.85;100.00;99229.44;5053000;28;20056;-73
2021/08/09 14:07:25;;;;;;;0.25;0.10;;;;;;;19.91;100.00;99241.34;5052761;28;20472;-72
2021/08/09 14:10:28;;;;;;;4.68;1.17;;;;;;;20.01;100.00;99236.72;5053118;28;20611;-72
2021/08/09 14:13:32;;;;;;;3.05;0.20;;;;;;;20.21;100.00;99238.75;5053241;28;20331;-74
2021/08/09 14:16:36;;;;;;;0.47;0.28;;;;;;;20.34;100.00;99235.81;5053199;28;20099;-72
2021/08/09 14:19:38;;;;;;;0.50;0.10;;;;;;;20.37;100.00;99241.13;5033322;28;20133;-75
2021/08/09 14:22:41;;;;;;;2.05;0.20;;;;;;;20.40;100.00;99245.63;5033016;28;20052;-76